Latest Coastal Weather Observations for King Island Airport

IDT60701

Issued at 2:55 pm EST Thursday 2 October 2014 (issued every 10 minutes, with the page automatically refreshed every 10 minutes)

About coastal observations | Map of coastal stations | Coastal observations for TAS | Marine services | Other Formats
Station Details ID: 098017 Name: KING ISLAND AIRPORT Lat: -39.88 Lon: 143.88 Height: 37.0 m
Data from the previous 72 hours. | See also: Recent months at King Island Airport
Date/Time
EST
Temp

°C
Wind Pressure Rain
since 9am
mm
Weather Cloud Vis
km
Sea
Height
m
Swell
Dir
 
Speed
knots
Gust
knots
hPa Trend Height
m
Period
s
Dir
02/02:30pm 13.3 SW 17 22 1022.1 - 0.2 - Partly cloudy 10 - - - -
02/02:02pm 12.9 WSW 17 27 1022.2 - 0.2 - Partly cloudy 10 - - - -
02/02:00pm 13.7 WSW 17 22 1022.1 - 0.2 - Partly cloudy 10 - - - -
02/01:30pm 13.6 WSW 17 24 1022.1 - 0.2 - Partly cloudy 10 - - - -
02/01:00pm 13.1 WSW 16 22 1022.2 - 0.2 - Partly cloudy 10 - - - -
02/12:30pm 14.2 WSW 19 28 1022.2 - 0.2 - Partly cloudy 10 - - - -
02/12:01pm 12.7 SW 20 30 1022.2 - 0.2 - Partly cloudy 10 - - - -
02/12:00pm 12.7 SW 21 30 1022.2 - 0.2 - Cloudy 10 - - - -
02/11:30am 14.1 WSW 19 26 1022.2 - 0.2 - Partly cloudy 10 - - - -
02/11:00am 13.6 WSW 18 25 1022.1 - 0.2 - Partly cloudy 10 - - - -
02/10:53am 13.7 WSW 17 27 1022.1 - 0.2 - Partly cloudy 10 - - - -
02/10:30am 13.3 WSW 18 26 1022.1 - 0.2 - Partly cloudy 10 - - - -
02/10:20am 12.7 WSW 18 24 1022.1 - 0.2 - Partly cloudy 10 - - - -
02/10:18am 13.2 WSW 19 24 1022.0 - 0.2 - Partly cloudy 10 - - - -
02/10:00am 12.2 WSW 19 28 1022.2 - 0.0 - Partly cloudy 5 - - - -
02/09:59am 12.2 SW 19 28 1022.2 - 0.0 - Partly cloudy 5 - - - -
02/09:50am 12.9 WSW 17 28 1022.1 - 0.0 - Partly cloudy 10 - - - -
02/09:30am 12.8 WSW 19 28 1022.1 - 0.0 - Partly cloudy 10 - - - -
02/09:00am 12.8 WSW 19 27 1022.0 - 1.2 - Cloudy 10 - - - -
02/08:56am 12.9 WSW 17 27 1021.9 - 1.2 - Partly cloudy 10 - - - -
02/08:30am 11.8 WSW 17 24 1021.8 - 1.2 - Partly cloudy 10 - - - -
02/08:00am 12.2 WSW 17 26 1021.6 - 1.2 - Partly cloudy 10 - - - -
02/07:35am 12.0 WSW 16 26 1021.5 - 1.2 - Partly cloudy 10 - - - -
02/07:30am 12.0 WSW 16 24 1021.4 - 1.2 - Partly cloudy 10 - - - -
02/07:13am 11.5 WSW 18 28 1021.5 - 1.2 - Partly cloudy 10 - - - -
02/07:00am 11.2 WSW 18 24 1021.4 - 1.2 - Partly cloudy 10 - - - -
02/06:58am 10.9 W 17 24 1021.4 - 1.2 - Partly cloudy 10 - - - -
02/06:55am 11.1 W 17 24 1021.4 - 1.2 - Partly cloudy 10 - - - -
02/06:44am 11.2 WSW 18 24 1021.4 - 1.2 - Partly cloudy 5 - - - -
02/06:41am 11.2 WSW 17 24 1021.3 - 1.2 - Partly cloudy 10 - - - -
02/06:30am 11.2 W 16 23 1021.2 - 1.2 - Partly cloudy - - - - -
02/06:18am 11.4 W 17 25 1021.2 - 1.2 - Partly cloudy 10 - - - -
02/06:15am 11.5 W 16 24 1021.1 - 1.2 - Partly cloudy 10 - - - -
02/06:00am 11.0 WSW 20 28 1021.0 - 1.0 Rain Cloudy 4 - - - -
02/05:55am 11.3 WSW 19 28 1020.9 - 1.0 - Partly cloudy 5 - - - -
02/05:50am 11.6 WSW 15 28 1020.8 - 1.0 - Partly cloudy 10 - - - -
02/05:46am 11.8 W 14 18 1020.7 - 1.0 - Partly cloudy 10 - - - -
02/05:30am 12.0 W 17 28 1020.7 - 1.0 - Partly cloudy 10 - - - -
02/05:04am 12.5 W 15 25 1020.4 - 1.0 - Partly cloudy 10 - - - -
02/05:00am 12.5 W 16 25 1020.4 - 1.0 - Partly cloudy 10 - - - -
02/04:30am 12.4 W 18 26 1020.4 - 1.0 - Cloudy 10 - - - -
02/04:00am 12.0 W 18 25 1020.5 - 1.0 - Partly cloudy 10 - - - -
02/03:34am 12.2 W 16 26 1020.4 - 1.0 - Partly cloudy 10 - - - -
02/03:30am 12.3 W 18 26 1020.4 - 1.0 - Partly cloudy 10 - - - -
02/03:00am 11.9 W 18 25 1020.7 - 1.0 - Cloudy 10 - - - -
02/02:30am 11.8 W 17 22 1020.9 - 1.0 - Partly cloudy 10 - - - -
02/02:00am 12.3 W 13 18 1021.1 - 1.0 - Cloudy 10 - - - -
02/01:40am 12.2 W 15 25 1021.5 - 1.0 - Partly cloudy 10 - - - -
02/01:30am 12.0 W 15 20 1021.6 - 1.0 - Partly cloudy 10 - - - -
02/01:07am 11.8 W 14 19 1021.8 - 1.0 - Partly cloudy 10 - - - -
02/01:00am 11.9 W 15 21 1021.8 - 1.0 - Partly cloudy 8 - - - -
02/12:51am 12.0 W 16 21 1021.9 - 0.8 - Partly cloudy 5 - - - -
02/12:30am 12.1 W 18 24 1021.9 - 0.6 - Partly cloudy 10 - - - -
02/12:00am 11.8 W 17 23 1022.0 - 0.6 Rain Cloudy 10 - - - -
 
Date/Time
EST
Temp

°C
Wind Pressure Rain
since 9am
mm
Weather Cloud Vis
km
Sea
Height
m
Swell
Dir
 
Speed
knots
Gust
knots
hPa Trend Height
m
Period
s
Dir
01/11:45pm 11.5 W 16 23 1022.1 - 0.6 - Partly cloudy 10 - - - -
01/11:30pm 11.7 W 19 31 1022.3 - 0.6 - Partly cloudy 5 - - - -
01/11:29pm 11.8 W 19 31 1022.3 - 0.6 - Partly cloudy 5 - - - -
01/11:26pm 12.1 W 17 31 1022.2 - 0.4 - Partly cloudy 9 - - - -
01/11:00pm 11.8 W 17 24 1022.3 - 0.4 - Partly cloudy 10 - - - -
01/10:43pm 11.4 W 16 25 1022.4 - 0.2 - Partly cloudy 10 - - - -
01/10:32pm 11.4 W 18 29 1022.4 - 0.2 - Partly cloudy 5 - - - -
01/10:30pm 11.6 W 18 29 1022.4 - 0.2 - Partly cloudy 7 - - - -
01/10:27pm 11.8 W 18 29 1022.4 - 0.2 - Partly cloudy 10 - - - -
01/10:00pm 11.9 W 17 26 1022.3 - 0.2 - Partly cloudy 10 - - - -
01/09:44pm 11.8 W 19 30 1022.5 - 0.2 - Partly cloudy 10 - - - -
01/09:30pm 12.0 W 18 27 1022.5 - 0.2 - Partly cloudy 10 - - - -
01/09:00pm 11.6 W 17 23 1022.7 - 0.2 - Cloudy 10 - - - -
01/08:30pm 11.7 W 18 28 1022.7 - 0.2 - Partly cloudy 10 - - - -
01/08:18pm 11.9 W 16 26 1022.9 - 0.2 - Partly cloudy 10 - - - -
01/08:00pm 11.6 W 18 24 1022.9 - 0.2 - Partly cloudy 10 - - - -
01/07:33pm 12.1 W 17 27 1023.0 - 0.2 - Partly cloudy 10 - - - -
01/07:30pm 12.2 W 17 22 1022.9 - 0.2 - Partly cloudy 10 - - - -
01/07:05pm 12.2 W 17 27 1022.7 - 0.2 - Partly cloudy 10 - - - -
01/07:00pm 12.3 W 17 22 1022.7 - 0.2 - Partly cloudy 10 - - - -
01/06:30pm 12.1 W 18 25 1022.3 - 0.2 - Partly cloudy 10 - - - -
01/06:00pm 12.2 W 17 25 1022.5 - 0.2 - Cloudy 10 - - - -
01/05:55pm 12.2 W 15 25 1022.5 - 0.2 - Partly cloudy 10 - - - -
01/05:30pm 12.1 W 15 20 1022.5 - 0.2 - Partly cloudy 10 - - - -
01/05:00pm 12.5 W 15 21 1022.4 - 0.2 - Partly cloudy - - - - -
01/04:30pm 12.4 W 15 21 1022.4 - 0.2 - Partly cloudy - - - - -
01/04:00pm 12.9 WSW 17 23 1022.4 - 0.2 - - - - - - -
01/03:30pm 13.4 WSW 16 21 1022.3 - 0.2 - Partly cloudy - - - - -
01/03:00pm 13.2 W 17 23 1022.3 - 0.2 - Mostly cloudy - - - - -
01/02:30pm 12.9 WSW 17 24 1022.4 - 0.2 - Partly cloudy - - - - -
01/02:00pm 12.7 WSW 14 20 1022.2 - 0.2 - Partly cloudy - - - - -
01/01:37pm 12.2 WSW 17 27 1022.5 - 0.2 - Partly cloudy - - - - -
01/01:30pm 12.5 W 16 20 1022.4 - 0.2 - Partly cloudy - - - - -
01/01:00pm 12.1 WSW 18 25 1022.5 - 0.2 - Partly cloudy - - - - -
01/12:30pm 12.0 WSW 18 23 1022.3 - 0.2 - Partly cloudy - - - - -
01/12:00pm 12.2 WSW 17 22 1022.2 - 0.2 Recent precip. Cloudy - - - - -
01/11:36am 10.8 WSW 18 28 1022.4 - 0.0 - Partly cloudy 9 - - - -
01/11:30am 10.8 WSW 19 28 1022.5 - 0.0 - Partly cloudy - - - - -
01/11:25am 12.1 WSW 17 28 1022.3 - 0.0 - Partly cloudy - - - - -
01/11:00am 12.1 WSW 14 18 1022.5 - 0.0 - Partly cloudy - - - - -
01/10:38am 10.6 WSW 17 27 1022.3 - 0.0 - Partly cloudy - - - - -
01/10:30am 10.7 WSW 19 27 1022.1 - 0.0 - Partly cloudy - - - - -
01/10:00am 12.0 WSW 17 21 1021.8 - 0.0 - Partly cloudy - - - - -
01/09:30am 12.3 WSW 17 26 1021.4 - 0.0 - Partly cloudy - - - - -
01/09:00am 11.8 WSW 19 26 1021.1 - 7.4 - Partly cloudy - - - - -
01/08:30am 11.8 WSW 18 24 1020.6 - 7.4 - - - - - - -
01/08:06am 11.4 SW 15 26 1020.3 - 7.4 - Partly cloudy 10 - - - -
01/08:00am 11.2 SW 13 18 1020.2 - 7.4 - Partly cloudy 10 - - - -
01/07:30am 9.6 WSW 19 30 1019.8 - 7.4 - Partly cloudy 10 - - - -
01/07:21am 10.8 WSW 17 28 1019.7 - 7.4 - Partly cloudy - - - - -
01/07:00am 10.2 SW 15 20 1019.3 - 7.4 - Partly cloudy 10 - - - -
01/06:30am 10.0 SW 16 25 1018.8 - 7.4 - Partly cloudy 10 - - - -
01/06:00am 9.5 SW 17 28 1018.2 - 7.4 - Mostly cloudy 10 - - - -
01/05:49am 9.9 SW 17 29 1018.0 - 7.4 - Partly cloudy 10 - - - -
01/05:30am 9.9 WSW 18 26 1017.6 - 7.4 - Partly cloudy 10 - - - -
01/05:10am 10.1 WSW 18 28 1017.3 - 7.4 - Partly cloudy 10 - - - -
01/05:00am 9.8 WSW 19 27 1017.1 - 7.4 - Partly cloudy 10 - - - -
01/04:55am 10.0 SW 17 27 1016.9 - 7.4 - Partly cloudy 10 - - - -
01/04:30am 9.9 SW 19 25 1016.6 - 7.4 - Partly cloudy 10 - - - -
01/04:02am 9.0 WSW 19 29 1016.0 - 7.4 - Partly cloudy 10 - - - -
01/04:00am 9.2 WSW 20 29 1016.0 - 7.4 - Partly cloudy 10 - - - -
01/03:32am 9.8 SW 17 27 1015.5 - 7.4 - Partly cloudy 10 - - - -
01/03:30am 10.0 SW 18 27 1015.5 - 7.4 - Partly cloudy 10 - - - -
01/03:00am 9.9 SW 21 31 1015.2 - 7.4 - Mostly clear 10 - - - -
01/02:40am 9.8 SW 18 29 1014.9 - 7.4 - Partly cloudy 10 - - - -
01/02:30am 9.7 SW 18 26 1014.8 - 7.4 - Partly cloudy 10 - - - -
01/02:04am 9.5 SW 18 30 1014.3 - 7.4 - Partly cloudy 10 - - - -
01/02:00am 9.6 WSW 18 25 1014.3 - 7.4 - Partly cloudy 10 - - - -
01/01:49am 9.1 WSW 20 30 1014.2 - 7.4 - Partly cloudy 10 - - - -
01/01:30am 9.3 SW 21 29 1014.0 - 7.4 - Partly cloudy 10 - - - -
01/01:00am 9.3 WSW 22 32 1013.7 - 7.4 - Partly cloudy 10 - - - -
01/12:34am 9.9 SW 24 34 1013.1 - 7.4 - Partly cloudy 10 - - - -
01/12:30am 9.8 WSW 25 34 1013.1 - 7.4 - Partly cloudy 10 - - - -
01/12:06am 9.3 SW 21 31 1012.7 - 7.4 - Partly cloudy 10 - - - -
01/12:00am 9.2 SW 23 31 1012.6 - 7.4 Rain - 10 - - - -
 
Date/Time
EST
Temp

°C
Wind Pressure Rain
since 9am
mm
Weather Cloud Vis
km
Sea
Height
m
Swell
Dir
 
Speed
knots
Gust
knots
hPa Trend Height
m
Period
s
Dir
30/11:32pm 9.3 WSW 21 34 1011.9 - 7.4 - Partly cloudy 10 - - - -
30/11:30pm 9.3 WSW 20 29 1011.8 - 7.4 - Partly cloudy 10 - - - -
30/11:08pm 9.5 WSW 21 31 1011.6 - 7.4 - Partly cloudy 10 - - - -
30/11:00pm 9.6 WSW 22 31 1011.4 - 7.4 - Partly cloudy 10 - - - -
30/10:30pm 9.3 WSW 23 32 1011.0 - 7.4 - Partly cloudy 10 - - - -
30/10:10pm 8.7 WSW 20 30 1010.8 - 7.4 - Partly cloudy 10 - - - -
30/10:00pm 8.4 WSW 21 29 1010.6 - 7.4 - Partly cloudy 10 - - - -
30/09:36pm 8.5 SW 21 31 1010.2 - 7.4 - Partly cloudy 10 - - - -
30/09:30pm 8.5 SW 22 31 1010.1 - 7.4 - Partly cloudy 10 - - - -
30/09:00pm 8.6 SW 23 37 1009.5 - 7.4 Showers Mostly cloudy 10 - - - -
30/08:43pm 9.2 W 19 29 1009.0 - 7.4 - Partly cloudy 10 - - - -
30/08:30pm 7.6 W 17 22 1009.0 - 7.4 - Partly cloudy 10 - - - -
30/08:04pm 7.2 WSW 16 27 1009.1 - 7.0 - Partly cloudy 10 - - - -
30/08:01pm 6.6 WSW 17 27 1009.0 - 6.8 - Partly cloudy 10 - - - -
30/08:00pm 6.7 WSW 18 27 1008.9 - 6.8 - Partly cloudy 10 - - - -
30/07:59pm 6.7 WSW 19 27 1008.9 - 6.8 - Partly cloudy 10 - - - -
30/07:43pm 7.2 W 30 42 1008.7 - 5.8 - Partly cloudy 5 - - - -
30/07:42pm 7.3 W 31 42 1008.7 - 5.6 - Partly cloudy 7 - - - -
30/07:40pm 7.8 W 33 42 1008.6 - 5.2 - Partly cloudy 10 - - - -
30/07:38pm 9.4 W 19 33 1008.3 - 5.0 - Partly cloudy 10 - - - -
30/07:30pm 9.6 WSW 16 22 1007.9 - 5.0 - Partly cloudy 10 - - - -
30/07:04pm 9.3 W 18 28 1007.6 - 5.0 - Partly cloudy 10 - - - -
30/07:00pm 9.8 W 20 28 1007.4 - 5.0 - Partly cloudy 10 - - - -
30/06:35pm 9.9 W 21 31 1006.7 - 4.8 - Partly cloudy 10 - - - -
30/06:30pm 10.1 W 22 30 1006.7 - 4.8 - Partly cloudy 10 - - - -
30/06:13pm 10.2 W 23 33 1006.4 - 4.8 - Partly cloudy 10 - - - -
30/06:00pm 10.5 W 23 31 1006.1 - 4.8 - Cloudy 10 - - - -
30/05:30pm 11.2 W 21 31 1005.6 - 4.8 - Partly cloudy 10 - - - -
30/05:28pm 11.2 W 20 30 1005.6 - 4.8 - Partly cloudy 10 - - - -
30/05:00pm 10.9 W 20 28 1005.0 - 4.8 - Partly cloudy 10 - - - -
30/04:30pm 11.6 W 25 36 1004.5 - 4.8 - Partly cloudy 10 - - - -
30/04:00pm 12.2 W 23 33 1003.9 - 4.8 - Partly cloudy 10 - - - -
30/03:38pm 11.6 WSW 25 35 1003.3 - 4.8 - Partly cloudy 10 - - - -
30/03:30pm 11.7 WSW 24 33 1003.0 - 4.8 - Partly cloudy 10 - - - -
30/03:12pm 10.5 W 23 34 1002.9 - 4.6 - Partly cloudy 10 - - - -
30/03:00pm 11.8 W 20 29 1002.3 - 4.6 Rain Cloudy 10 - - - -
30/02:30pm 9.4 WSW 29 42 1001.4 - 4.6 - Partly cloudy 10 - - - -
30/02:23pm 9.7 W 29 45 1001.5 - 4.6 - Partly cloudy 10 - - - -
30/02:00pm 9.7 W 27 45 1001.0 - 4.0 - Partly cloudy 4 - - - -
30/01:47pm 11.1 W 24 34 1001.0 - 2.8 - Partly cloudy 5 - - - -
30/01:45pm 11.2 W 25 34 1000.9 - 2.6 - Partly cloudy 5 - - - -
30/01:30pm 11.4 W 25 34 1000.1 - 2.2 - Partly cloudy 10 - - - -
30/01:05pm 12.2 W 24 38 1000.2 - 2.0 - Partly cloudy 10 - - - -
30/01:00pm 12.6 WNW 24 33 1000.1 - 1.8 - Partly cloudy 10 - - - -
30/12:42pm 12.2 WNW 19 31 1000.0 - 1.8 - Partly cloudy 10 - - - -
30/12:30pm 12.8 W 18 25 1000.1 - 1.8 - Partly cloudy 10 - - - -
30/12:13pm 11.3 W 20 30 1000.2 - 1.8 - Partly cloudy 9 - - - -
30/12:00pm 11.8 W 21 30 1000.4 - 1.8 Showers Cloudy 8 - - - -
30/11:59am 11.9 W 21 30 1000.4 - 1.8 - Partly cloudy 9 - - - -
30/11:48am 11.7 WNW 24 34 1000.6 - 1.6 - Partly cloudy - - - - -
30/11:44am 12.3 WNW 26 36 1000.6 - 1.4 - Partly cloudy - - - - -
30/11:32am 12.5 WNW 28 37 1000.6 - 1.2 - Partly cloudy 7 - - - -
30/11:30am 12.7 WNW 27 37 1000.6 - 1.2 - Partly cloudy 7 - - - -
30/11:25am 13.1 WNW 27 32 1000.6 - 1.0 - Partly cloudy 7 - - - -
30/11:12am 13.9 NNW 31 41 1000.4 - 0.4 - Partly cloudy 5 - - - -
30/11:00am 14.3 NNW 27 37 1000.1 - 0.0 - Partly cloudy 10 - - - -
30/10:41am 14.0 NNW 23 33 1000.5 - 0.0 - Partly cloudy 9 - - - -
30/10:30am 14.4 NNW 23 30 1000.8 - 0.0 - Cloudy 10 - - - -
30/10:00am 15.2 NNW 25 33 1001.4 - 0.0 - Partly cloudy 10 - - - -
30/09:47am 15.0 NNW 23 33 1001.8 - 0.0 - Partly cloudy 10 - - - -
30/09:30am 14.7 NNW 26 33 1002.2 - 0.0 - Partly cloudy 10 - - - -
30/09:11am 14.5 NNW 23 34 1002.4 - 0.0 - Partly cloudy 10 - - - -
30/09:00am 14.4 NNW 23 30 1002.6 - 0.0 - Cloudy 10 - - - -
30/08:30am 14.4 NNW 22 30 1002.9 - 0.0 - Partly cloudy 10 - - - -
30/08:00am 14.1 NNW 22 28 1003.3 - 0.0 - Partly cloudy 10 - - - -
30/07:35am 14.0 NNW 23 33 1003.6 - 0.0 - Partly cloudy 10 - - - -
30/07:30am 13.9 NNW 24 32 1003.6 - 0.0 - Partly cloudy 10 - - - -
30/07:00am 13.6 NNW 24 32 1004.2 - 0.0 - Partly cloudy 10 - - - -
30/06:30am 13.5 NNW 22 29 1004.3 - 0.0 - Partly cloudy 10 - - - -
30/06:07am 13.4 NNW 22 32 1004.3 - 0.0 - Partly cloudy 10 - - - -
30/06:00am 13.3 NNW 23 32 1004.4 - 0.0 - Cloudy 10 - - - -
30/05:30am 13.3 NNW 25 32 1004.7 - 0.0 - Partly cloudy 10 - - - -
30/05:02am 13.3 NNW 22 32 1004.5 - 0.0 - Partly cloudy 10 - - - -
30/05:00am 13.3 NNW 23 32 1004.6 - 0.0 - Partly cloudy 10 - - - -
30/04:30am 13.2 NNW 21 30 1004.9 - 0.0 - Partly cloudy 10 - - - -
30/04:00am 13.0 NNW 20 26 1005.5 - 0.0 - Partly cloudy 10 - - - -
30/03:30am 13.2 NNW 22 29 1005.7 - 0.0 - Partly cloudy 10 - - - -
30/03:00am 13.2 NNW 20 27 1006.1 - 0.0 - Mostly cloudy 10 - - - -
30/02:30am 13.2 NNW 17 25 1006.5 - 0.0 - Partly cloudy 10 - - - -
30/02:00am 13.4 NNW 18 24 1007.2 - 0.0 - Partly cloudy 10 - - - -
30/01:30am 13.5 NW 16 20 1007.6 - 0.0 - Partly cloudy 10 - - - -
30/01:00am 13.2 NW 17 21 1008.0 - 0.0 - Partly cloudy 10 - - - -
30/12:30am 13.5 NW 19 24 1008.3 - 0.0 - Partly cloudy 10 - - - -
30/12:00am 13.6 WNW 20 28 1008.8 - 0.0 - Mostly cloudy 10 - - - -
 
Date/Time
EST
Temp

°C
Wind Pressure Rain
since 9am
mm
Weather Cloud Vis
km
Sea
Height
m
Swell
Dir
 
Speed
knots
Gust
knots
hPa Trend Height
m
Period
s
Dir
29/11:30pm 13.4 WNW 19 24 1009.2 - 0.0 - - 10 - - - -
29/11:00pm 13.2 WNW 18 23 1009.6 - 0.0 - Partly cloudy 10 - - - -
29/10:30pm 13.6 WNW 20 28 1009.9 - 0.0 - Partly cloudy 10 - - - -
29/10:04pm 13.6 WNW 21 32 1010.4 - 0.0 - Partly cloudy 10 - - - -
29/10:00pm 13.8 WNW 21 28 1010.4 - 0.0 - Partly cloudy 10 - - - -
29/09:30pm 13.8 NW 19 23 1010.4 - 0.0 - Partly cloudy 10 - - - -
29/09:00pm 13.7 WNW 21 26 1010.4 - 0.0 - Mostly cloudy 10 - - - -
29/08:30pm 13.4 WNW 20 27 1010.3 - 0.0 - Partly cloudy 10 - - - -
29/08:00pm 13.3 WNW 18 22 1010.0 - 0.0 - Partly cloudy 10 - - - -
29/07:30pm 13.3 WNW 16 21 1009.8 - 0.0 - - 10 - - - -
29/07:00pm 13.3 NW 16 20 1009.3 - 0.0 - - 10 - - - -
29/06:30pm 13.3 NW 16 19 1009.3 - 0.0 - - 10 - - - -
29/06:00pm 13.7 NW 16 20 1009.1 - 0.0 - Mostly clear 10 - - - -
29/05:30pm 14.1 NW 17 21 1009.1 - 0.0 - Cloudy 10 - - - -
29/05:00pm 14.5 NW 17 21 1009.3 - 0.0 - Partly cloudy 10 - - - -
29/04:30pm 14.9 WNW 19 25 1009.4 - 0.0 - Partly cloudy 10 - - - -
29/04:00pm 15.2 WNW 19 25 1009.5 - 0.0 - Partly cloudy 10 - - - -
29/03:30pm 14.7 NW 21 26 1009.8 - 0.0 - Partly cloudy 10 - - - -
29/03:00pm 15.4 NW 21 27 1010.1 - 0.0 - Mostly clear 10 - - - -

Other Formats:

Comma delimited format used in spreadsheet applications
http://www.bom.gov.au/fwo/IDT60701/IDT60701.94850.axf

JavaScript Object Notation format (JSON) in row-major order
http://www.bom.gov.au/fwo/IDT60701/IDT60701.94850.json